Tiempo atmosférico en la estación meteorológica de Roquetas de Mar, Almería (7 m.)



Fecha
DESCASC
Temp. máxima en grados centígrados (hora)
DESCASC
Temp. mínima en grados centígrados (hora)
DESCASC
Temp. media en grados centígrados
DESCASC
Racha de viento máxima en m/sg (hora)
DESCASC
Velocidad máxima media en intervalos de 10 minutos(hora)
DESCASC
Precipitaciones diarias en mm
DESCASC
Precipitaciones de 00:00 a 06:00 en mm
DESCASC
Precipitaciones de 06:00 a 12:00 en mm
DESCASC
Precipitaciones de 12:00 a 18:00 en mm
DESCASC
Precipitaciones de 18:00 a 24:00 en mm
DESCASC
22-04-2019 20.7 (18:40) 13.4 (08:10) 17.1 20.83 (23:59) 10.83 (23:59) 0 0 0 0 0
21-04-2019 16.2 (18:40) 13.4 (06:30) 14.8 10.83 (18:10) 6.94 (17:20) 19.8 4.4 13.2 1.8 0.4
20-04-2019 18.3 (14:50) 12 (01:50) 15.1 8.33 (15:10) 5.56 (15:10) 9.8 0 6 0.2 3.6
19-04-2019 19 (15:10) 9.5 (08:00) 14.3 10.28 (00:20) 6.39 (00:10) 0 0 0 0 0
18-04-2019 17.8 (18:10) 13.5 (00:00) 15.6 13.89 (01:20) 8.89 (01:30) 10.6 0 9 1.6 0
17-04-2019 21 (12:50) 15.6 (00:00) 18.3 16.94 (15:30) 10 (15:50) 0 0 0 0 0
16-04-2019 20.9 (18:50) 12.4 (00:00) 16.6 16.67 (02:30) 9.72 (00:40) 0 0 0 0 0
15-04-2019 21.3 (18:50) 11.1 (00:00) 16.2 15 (23:10) 10.83 (23:00) 0 0 0 0 0
14-04-2019 21.1 (17:00) 10 (00:00) 15.6 8.33 (20:30) 5.56 (20:30) 0 0 0 0 0
13-04-2019 20.5 (16:00) 8.1 (00:00) 14.3 11.39 (19:00) 7.22 (19:00) 0 0 0 0 0
12-04-2019 22 (15:50) 9.3 (00:00) 15.7 6.11 (17:10) 3.89 (21:40) 0 0 0 0 0
11-04-2019 20.1 (16:00) 9 (00:00) 14.6 10 (18:20) 6.39 (18:20) 0 0 0 0 0
10-04-2019 19.7 (19:50) 9.6 (00:00) 14.7 15.83 (15:30) 9.72 (15:30) 0 0 0 0 0
09-04-2019 18.5 (12:50) 13.6 (00:00) 16.1 20.83 (18:40) 12.5 (20:20) 0 0 0 0 0
08-04-2019 -- (--) -- (--) -- -- (--) -- (--) 0 0 0 0 0
07-04-2019 18.4 (17:00) 11.9 (00:00) 15.1 20.28 (14:50) 12.22 (14:20) 0 0 0 0 0
06-04-2019 16.5 (14:30) 12.6 (00:00) 14.6 22.78 (08:30) 15 (08:20) 0.6 0 0 0.6 0
05-04-2019 15.3 (11:10) 12.1 (00:00) 13.7 21.39 (20:10) 14.72 (20:10) 7.2 0.2 0 7 0
04-04-2019 19 (13:20) 10 (00:00) 14.5 15 (09:20) 9.44 (09:00) 0 0 0 0 0
03-04-2019 20.1 (16:10) 10.7 (00:00) 15.4 13.33 (18:10) 6.94 (20:10) 0 0 0 0 0
02-04-2019 19.5 (17:00) 11.8 (00:00) 15.7 11.94 (19:10) 6.67 (19:20) 0 0 0 0 0
01-04-2019 19.2 (16:10) 14.5 (00:00) 16.9 10.83 (17:40) 6.39 (17:00) 0.2 0 0 0.2 0
31-03-2019 16 (11:20) 13.6 (00:00) 14.8 15.56 (00:30) 10 (00:20) 2.2 0 0 1.8 0.4
30-03-2019 19 (12:50) 13.2 (00:00) 16.1 18.61 (13:00) 11.67 (14:20) 3 0 0 0 3
29-03-2019 19.5 (14:00) 13.2 (00:00) 16.3 19.17 (11:00) 11.67 (11:00) 0 0 0 0 0
28-03-2019 19.8 (12:10) 11.5 (00:00) 15.6 17.22 (18:50) 10.83 (18:00) 0 0 0 0 0
27-03-2019 19.3 (13:50) 13.6 (00:00) 16.4 23.61 (00:30) 15 (01:10) 0 0 0 0 0
26-03-2019 21.4 (13:30) 14.5 (00:00) 17.9 25 (13:40) 15.28 (20:40) 0 0 0 0 0
25-03-2019 21.9 (12:10) 14 (00:00) 17.9 13.89 (16:50) 8.89 (18:50) 0 0 0 0 0

Gráficas

Temp. máximas Temp. mínimas Temp. medias Precipitaciones Rachas de viento máximas Velocidades máximas media en intervalos de 10 minutos

Datos horarios

Fecha y hora oficial Temperatura (ºC) Velocidad del viento (km/h) Dirección del viento Racha (km/h) Dirección de racha Precipitación (mm) Presión (hPa) Tendencia (hPa) Humedad (%)
2019-04-23 23:00:00 15.2 40 Oeste 69 Oeste 0 1006.6 2.7 60
2019-04-23 22:00:00 15.6 43 Oeste 67 Oeste 0 1005.5 2 65
2019-04-23 21:00:00 15.4 43 Oeste 70 Oeste 0 1004.4 1.6 66
2019-04-23 20:00:00 16.2 44 Oeste 67 Oeste 0 1003.9 1.5 58
2019-04-23 19:00:00 16.4 49 Oeste 73 Oeste 0 1003.5 0.7 63
2019-04-23 18:00:00 16.5 38 Oeste 57 Oeste 0 1002.8 0.5 63
2019-04-23 17:00:00 15.5 23 Oeste 54 Oeste 0 1002.4 -0.2 62
2019-04-23 16:00:00 16.3 34 Oeste 50 Oeste 0 1002.8 0.5 75
2019-04-23 15:00:00 14.6 24 Oeste 48 Oeste 0.4 1002.3 0.2 86
2019-04-23 14:00:00 14.9 26 Oeste 46 Noroeste 2.6 1002.6 1.4 87
2019-04-23 13:00:00 15.3 28 Oeste 52 Noroeste 0.2 1002.3 1.5 79
2019-04-23 12:00:00 15.3 28 Oeste 59 Oeste 0 1002.1 1.2 79
2019-04-23 11:00:00 17.1 30 Oeste 48 Oeste 0 1001.2 0.6 72
2019-04-23 10:00:00 16.7 23 Oeste 46 Oeste 0 1000.8 0.4 75
2019-04-23 09:00:00 16.5 32 Oeste 56 Oeste 0 1000.9 0.4 76
2019-04-23 08:00:00 15.9 37 Oeste 58 Oeste 0 1000.6 -0.1 77
2019-04-23 07:00:00 15.9 29 Oeste 58 Noroeste 0 1000.4 -0.7 81
2019-04-23 06:00:00 16 29 Oeste 54 Oeste 0 1000.5 -1.1 80
2019-04-23 05:00:00 16 34 Oeste 57 Oeste 0 1000.7 -1.2 80
2019-04-23 04:00:00 16.3 31 Oeste 55 Oeste 0 1001.1 -0.8 80
2019-04-23 03:00:00 16.3 33 Oeste 60 Oeste 0 1001.6 -0.4 79
2019-04-23 02:00:00 16.4 34 Oeste 71 Oeste 0 1001.9 -0.2 79
2019-04-23 01:00:00 16.6 39 Oeste 65 Oeste 0 1001.9 0.3 78
2019-04-23 00:00:00 16.8 39 Oeste 75 Oeste 0 1002 0.6 79
2019-04-22 23:00:00 17.1 29 Oeste 45 Oeste 0 1002.1 0.7 80
2019-04-22 22:00:00 17.3 25 Oeste 44 Oeste 0 1001.6 0.2 80
2019-04-22 21:00:00 17.6 28 Oeste 41 Oeste 0 1001.4 0.2 80
2019-04-22 20:00:00 18.1 18 Oeste 37 Oeste 0 1001.4 -0.1 76
2019-04-22 19:00:00 19.5 22 Oeste 38 Oeste 0 1001.4 -0.7 66
2019-04-22 18:00:00 20.3 12 Oeste 24 Oeste 0 1001.2 -1.1 56
2019-04-22 17:00:00 20.2 11 Oeste 18 Sudoeste 0 1001.5 -1.1 62
2019-04-22 16:00:00 19 9 Oeste 24 Oeste 0 1002.1 -0.8 65
2019-04-22 15:00:00 19.4 13 Oeste 23 Sudoeste 0 1002.3 -0.6 64
2019-04-22 14:00:00 17.7 8 Sudoeste 15 Sur 0 1002.6 0.2 69
2019-04-22 13:00:00 18 8 Sur 18 Sur 0 1002.9 0.7 68
2019-04-22 12:00:00 18.1 8 Sudeste 15 Sudeste 0 1002.9 0.9 71
2019-04-22 11:00:00 16.9 8 Sudeste 15 Sudeste 0 1002.4 0.7 80
2019-04-22 10:00:00 15.6 8 Este 13 Este 0 1002.2 0.4 89
2019-04-22 09:00:00 14.5 5 Nordeste 7 Nordeste 0 1002 -0.3 91
2019-04-22 08:00:00 13.6 0 Calma 3 Norte 0 1001.7 -1.1 90
2019-04-22 07:00:00 13.7 0 Calma 6 Noroeste 0 1001.8 -1.5 89
2019-04-22 06:00:00 13.8 6 Noroeste 11 Oeste 0 1002.3 -1.6 88
2019-04-22 05:00:00 14 8 Oeste 18 Oeste 0 1002.8 -1.7 88
2019-04-22 04:00:00 14.6 11 Oeste 24 Oeste 0 1003.3 -1.7 87
2019-04-22 03:00:00 15.1 19 Oeste 32 Oeste 0 1003.9 -1.7 87
2019-04-22 02:00:00 15.1 19 Oeste 30 Oeste 0 1004.5 -1.2 87
2019-04-22 01:00:00 15.2 16 Oeste 30 Oeste 0 1005 -0.3 88
2019-04-22 00:00:00 15 18 Oeste 27 Oeste 0 1005.6 0.3 89
2019-04-21 23:00:00 15.2 10 Noroeste 30 Oeste 0 1005.7 0.6 89
2019-04-21 22:00:00 15.1 19 Oeste 32 Oeste 0.2 1005.3 -0.1 89
2019-04-21 21:00:00 15.1 11 Oeste 33 Oeste 0 1005.3 -0.3 88
2019-04-21 20:00:00 15.5 22 Oeste 35 Oeste 0.2 1005.1 -0.8 87
2019-04-21 19:00:00 16.1 21 Oeste 39 Oeste 0 1005.4 -0.9 85
2019-04-21 18:00:00 15.7 24 Oeste 38 Oeste 0 1005.6 -1 87
2019-04-21 17:00:00 15.5 24 Oeste 37 Oeste 0.2 1005.9 -1.4 89
2019-04-21 16:00:00 15 21 Oeste 32 Oeste 0 1006.3 -1.4 91
2019-04-21 15:00:00 14.9 17 Oeste 30 Oeste 0.2 1006.6 -1.2 92
2019-04-21 14:00:00 14.2 9 Oeste 21 Oeste 0.6 1007.3 -0.3 92
2019-04-21 13:00:00 13.9 14 Oeste 21 Oeste 0.8 1007.7 -0.2 92
2019-04-21 12:00:00 13.9 10 Oeste 20 Oeste 1.4 1007.8 -0.4 93
2019-04-21 11:00:00 13.9 10 Oeste 14 Oeste 2.2 1007.6 -0.5 92
2019-04-21 10:00:00 13.8 6 Noroeste 13 Noroeste 2.8 1007.9 0 92
2019-04-21 09:00:00 13.7 8 Noroeste 14 Oeste 3 1008.2 -0.3 92
2019-04-21 08:00:00 13.8 9 Noroeste 19 Oeste 1.8 1008.1 -0.8 92
2019-04-21 07:00:00 13.4 10 Oeste 23 Noroeste 2 1007.9 -1.4 91
2019-04-21 06:00:00 13.6 10 Noroeste 21 Oeste 0.8 1008.5 -1.7 91
2019-04-21 05:00:00 13.8 10 Oeste 16 Oeste 0.8 1008.9 -2.1 90
2019-04-21 04:00:00 14.3 9 Oeste 14 Oeste 0.6 1009.3 -2.2 89
2019-04-21 03:00:00 14.5 5 Sudoeste 9 Sudoeste 1.8 1010.2 -1.8 89
2019-04-21 02:00:00 14.5 5 Oeste 10 Oeste 0.4 1011 -1.5 88
2019-04-21 01:00:00 14.6 6 Oeste 10 Oeste 0 1011.5 -0.9 87
2019-04-21 00:00:00 14.7 6 Noroeste 10 Noroeste 0 1012 -0.3 86
2019-04-20 23:00:00 14.8 2 Oeste 5 Oeste 0 1012.5 0.5 84
2019-04-20 22:00:00 14.6 2 Norte 16 Este 3.6 1012.4 1 81
2019-04-20 21:00:00 16.3 10 Este 19 Sudeste 0 1012.3 1 69
2019-04-20 20:00:00 16.9 7 Sudeste 13 Sudeste 0 1012 0.7 65
2019-04-20 19:00:00 17.5 7 Sur 14 Sur 0 1011.4 0 65
2019-04-20 18:00:00 17.4 9 Sur 15 Sudoeste 0 1011.3 0.4 66
2019-04-20 17:00:00 17.4 7 Sudoeste 23 Sur 0 1011.3 0.6 67
2019-04-20 16:00:00 17.8 13 Sur 30 Sur 0 1011.4 0 68
2019-04-20 15:00:00 18 18 Sur 28 Sur 0 1010.9 -0.9 70
2019-04-20 14:00:00 16.4 5 Nordeste 15 Noroeste 0 1010.7 -1 79
2019-04-20 13:00:00 14.3 6 Noroeste 11 Noroeste 0.2 1011.4 0 90
2019-04-20 12:00:00 14.1 7 Noroeste 14 Oeste 1 1011.8 0.3 91
2019-04-20 11:00:00 13.7 10 Oeste 28 Oeste 3.8 1011.7 1.3 90
2019-04-20 10:00:00 13.7 9 Noroeste 13 Noroeste 1.2 1011.4 1.4 90
2019-04-20 09:00:00 13.5 3 Noroeste 9 Sur 0 1011.5 0.9 90
2019-04-20 08:00:00 12.6 0 Calma 5 Noroeste 0 1010.4 -0.8 90
2019-04-20 07:00:00 12.4 4 Oeste 8 Noroeste 0 1010 -2.3 90
2019-04-20 06:00:00 12.4 6 Norte 8 Norte 0 1010.6 -2.9 90
2019-04-20 05:00:00 12.2 6 Norte 11 Norte 0 1011.2 -3 89
2019-04-20 04:00:00 12.1 5 Norte 8 Norte 0 1012.3 -2.5 89
2019-04-20 03:00:00 12.1 6 Norte 10 Norte 0 1013.5 -1.8 88
2019-04-20 02:00:00 12.2 9 Norte 13 Norte 0 1014.2 -1.1 87
2019-04-20 01:00:00 12.2 7 Norte 10 Norte 0 1014.8 0.1 85
2019-04-20 00:00:00 12.8 5 Norte 10 Nordeste 0 1015.3 0.8 83
2019-04-19 23:00:00 13.6 6 Norte 8 Nordeste 0 1015.3 1 79
2019-04-19 22:00:00 15.2 5 Sur 11 Sudeste 0 1014.7 0.6 75
2019-04-19 21:00:00 16 5 Este 9 Sudeste 0 1014.5 0.5 70
2019-04-19 20:00:00 17.1 4 Este 11 Este 0 1014.3 0.5 66
2019-04-19 19:00:00 18 6 Sudeste 15 Sudeste 0 1014.1 0 63
2019-04-19 18:00:00 18.2 8 Sur 19 Sudeste 0 1014 -0.3 62
2019-04-19 17:00:00 18.6 12 Sur 20 Sudeste 0 1013.8 -1 63
2019-04-19 16:00:00 18.3 12 Sudeste 21 Sudeste 0 1014.1 -0.9 63
2019-04-19 15:00:00 18.7 12 Sur 21 Sur 0 1014.3 -0.6 64
2019-04-19 14:00:00 18.3 9 Sudeste 18 Sudeste 0 1014.8 0.3 64
2019-04-19 13:00:00 17.9 9 Sudeste 21 Este 0 1015 0.7 63
2019-04-19 12:00:00 17.9 10 Sudeste 19 Este 0 1014.9 0.9 65
2019-04-19 11:00:00 17.1 10 Este 23 Este 0 1014.5 0.9 76
2019-04-19 10:00:00 14.4 5 Este 9 Este 0 1014.3 1.2 90
2019-04-19 09:00:00 11.2 7 Norte 9 Norte 0 1014 0.8 91
2019-04-19 08:00:00 9.5 7 Norte 10 Norte 0 1013.6 0.2 90
2019-04-19 07:00:00 10.2 8 Norte 10 Norte 0 1013.1 -0.3 89
2019-04-19 06:00:00 10.7 4 Nordeste 9 Nordeste 0 1013.2 -0.6 89
2019-04-19 05:00:00 11.2 8 Nordeste 16 Nordeste 0 1013.4 -0.6 88
2019-04-19 04:00:00 11.5 6 Norte 10 Norte 0 1013.4 -0.7 87
2019-04-19 03:00:00 12.2 6 Noroeste 14 Oeste 0 1013.8 0.3 86
2019-04-19 02:00:00 13.8 12 Oeste 18 Oeste 0 1014 0.6 85
2019-04-19 01:00:00 14.4 6 Norte 37 Oeste 0 1014.1 1.3 81
2019-04-19 00:00:00 15.5 20 Oeste 35 Oeste 0 1013.5 1.3 78
2019-04-18 23:00:00 15.4 17 Oeste 35 Oeste 0 1013.4 1.5 80
2019-04-18 22:00:00 15.7 18 Oeste 36 Oeste 0 1012.8 1 77
2019-04-18 21:00:00 15.7 18 Oeste 39 Oeste 0 1012.2 -0.1 78
2019-04-18 20:00:00 16.7 24 Oeste 40 Oeste 0 1011.9 -0.4 72
2019-04-18 19:00:00 17.3 23 Oeste 39 Oeste 0 1011.8 -1.1 70
2019-04-18 18:00:00 17.7 19 Sudoeste 37 Oeste 0 1012.3 -1.1 80
2019-04-18 17:00:00 16 14 Sudoeste 20 Sudoeste 0 1012.3 -1.1 79
2019-04-18 16:00:00 16.2 10 Sudoeste 26 Sudoeste 0 1012.9 -0.2 82
2019-04-18 15:00:00 14.6 19 Sudoeste 28 Sudoeste 0 1013.4 0.2 87
2019-04-18 14:00:00 14.1 15 Sudoeste 24 Sudoeste 0.6 1013.4 0.7 88
2019-04-18 13:00:00 14.2 5 Noroeste 21 Oeste 1 1013.1 0.6 90
2019-04-18 12:00:00 14.4 15 Oeste 27 Oeste 2.8 1013.2 0.8 90
2019-04-18 11:00:00 13.8 24 Oeste 50 Oeste 3.4 1012.7 0.6 88
2019-04-18 10:00:00 13.6 32 Oeste 47 Oeste 2.4 1012.5 0 89
2019-04-18 09:00:00 15.2 17 Oeste 36 Oeste 0.4 1012.4 -0.3 88
2019-04-18 08:00:00 16 5 Oeste 14 Sudoeste 0 1012.1 0.6 88
2019-04-18 07:00:00 16.1 10 Sudoeste 15 Sudoeste 0 1012.5 0.5 87
2019-04-18 06:00:00 15.3 5 Sur 12 Sur 0 1012.7 -0.5 85
2019-04-18 05:00:00 15.4 4 Sur 18 Oeste 0 1011.5 -1.3 83
2019-04-18 04:00:00 16 9 Oeste 40 Oeste 0 1012 -1.1 83
2019-04-18 03:00:00 16.4 23 Oeste 43 Oeste 0 1013.2 -0.2 84
2019-04-18 02:00:00 16.3 22 Noroeste 50 Oeste 0 1012.8 -1.4 81
2019-04-18 01:00:00 16.5 24 Oeste 46 Oeste 0 1013.1 0.1 81
2019-04-18 00:00:00 16.4 18 Oeste 36 Oeste 0 1013.4 2.4 81
2019-04-17 23:00:00 16.7 23 Oeste 48 Oeste 0 1014.2 5.3 82
2019-04-17 22:00:00 16.8 34 Oeste 57 Oeste 0 1013 5.2 81
2019-04-17 21:00:00 17.1 35 Oeste 58 Noroeste 0 1011 3 79
2019-04-17 20:00:00 18.5 23 Este 57 Este 0 1008.9 -0.5 67
2019-04-17 19:00:00 19.2 31 Este 58 Este 0 1007.8 -2.6 64
2019-04-17 18:00:00 19 32 Este 60 Sudeste 0 1008 -3.3 68
2019-04-17 17:00:00 19.1 31 Sudeste 51 Sudeste 0 1009.4 -3.6 68
2019-04-17 16:00:00 19.7 35 Este 61 Sudeste 0 1010.4 -3.6 65
2019-04-17 15:00:00 19.3 36 Sudeste 58 Este 0 1011.3 -3 67
2019-04-17 14:00:00 19.1 29 Sudeste 48 Sudeste 0 1013 -1.4 66
2019-04-17 13:00:00 20.5 28 Este 45 Este 0 1014 -0.3 59
2019-04-17 12:00:00 20.6 28 Este 55 Este 0 1014.3 0 58
2019-04-17 11:00:00 19 30 Este 46 Este 0 1014.4 0 62
2019-04-17 10:00:00 17.8 26 Este 44 Este 0 1014.3 -0.2 66
2019-04-17 09:00:00 16.4 25 Este 44 Este 0 1014.3 -0.2 72
2019-04-17 08:00:00 15.6 25 Este 46 Este 0 1014.4 0 76
2019-04-17 07:00:00 15.7 27 Este 44 Este 0 1014.5 -0.7 78
2019-04-17 06:00:00 16.3 25 Este 37 Este 0 1014.5 -1.5 73
2019-04-17 05:00:00 16.1 20 Este 35 Este 0 1014.4 -2 75
2019-04-17 04:00:00 15.9 21 Este 40 Este 0 1015.2 -1.2 79
2019-04-17 03:00:00 16 26 Este 41 Este 0 1016 -0.5 77
2019-04-17 02:00:00 16.2 24 Este 48 Este 0 1016.4 -0.2 77
2019-04-17 01:00:00 16.4 26 Este 50 Este 0 1016.4 0.3 75
2019-04-17 00:00:00 16.5 26 Este 50 Este 0 1016.5 1.3 78
2019-04-16 23:00:00 16.9 27 Este 47 Este 0 1016.6 1.4 78
2019-04-16 22:00:00 17.3 20 Este 35 Este 0 1016.1 0.8 74
2019-04-16 21:00:00 17.9 24 Este 38 Este 0 1015.2 -0.4 70
2019-04-16 20:00:00 19.4 17 Este 27 Este 0 1015.2 -1 60
2019-04-16 19:00:00 20.5 14 Este 24 Este 0 1015.3 -1.5 66
2019-04-16 18:00:00 20.1 11 Este 20 Este 0 1015.6 -2.2 69
2019-04-16 17:00:00 19.6 9 Sudeste 23 Sudeste 0 1016.2 -2.3 70
2019-04-16 16:00:00 19.5 10 Sudeste 21 Sudeste 0 1016.8 -2 69
2019-04-16 15:00:00 19.8 10 Sudeste 19 Sudeste 0 1017.8 -0.9 67
2019-04-16 14:00:00 19.2 6 Sudeste 20 Sudeste 0 1018.5 0.2 71
2019-04-16 13:00:00 18.9 10 Sudeste 18 Sudeste 0 1018.8 1 73
2019-04-16 12:00:00 18.3 7 Sudeste 21 Sudeste 0 1018.7 1.2 77
2019-04-16 11:00:00 17.8 9 Sudeste 20 Sudeste 0 1018.3 1.5 76
2019-04-16 10:00:00 16.9 7 Nordeste 16 Nordeste 0 1017.8 1.3 85
2019-04-16 09:00:00 14.6 5 Nordeste 10 Norte 0 1017.5 1.5 89
2019-04-16 08:00:00 12.6 7 Norte 13 Noroeste 0 1016.8 1.1 87
2019-04-16 07:00:00 13.9 8 Noroeste 30 Oeste 0 1016.5 0.9 85
2019-04-16 06:00:00 15.3 20 Oeste 36 Noroeste 0 1016 0.3 85
2019-04-16 05:00:00 15.5 21 Oeste 34 Oeste 0 1015.7 0.3 84
2019-04-16 04:00:00 15.8 21 Oeste 48 Oeste 0 1015.6 0.5 83
2019-04-16 03:00:00 16.5 31 Oeste 60 Oeste 0 1015.7 1.2 82
2019-04-16 02:00:00 16.6 31 Oeste 53 Oeste 0 1015.4 1 82
2019-04-16 01:00:00 17 35 Oeste 54 Oeste 0 1015.1 1.2 79
2019-04-16 00:00:00 17.3 24 Oeste 54 Oeste 0 1014.5 1.2 77
2019-04-15 23:00:00 18.1 39 Oeste 53 Oeste 0 1014.4 1.1 70
2019-04-15 22:00:00 18.8 22 Oeste 51 Oeste 0 1013.9 0.6 65
2019-04-15 21:00:00 18.9 27 Oeste 49 Oeste 0 1013.3 0.6 65
2019-04-15 20:00:00 19.2 20 Sudoeste 31 Sudoeste 0 1013.3 0.5 68
2019-04-15 19:00:00 20.8 12 Oeste 23 Oeste 0 1013.3 0.2 69
2019-04-15 18:00:00 20.3 8 Sudoeste 17 Sudoeste 0 1012.7 -0.5 73
2019-04-15 17:00:00 20.6 12 Sudoeste 18 Sudoeste 0 1012.8 -0.9 71
2019-04-15 16:00:00 18.9 12 Sudoeste 17 Sur 0 1013.1 -0.9 70
2019-04-15 15:00:00 19.9 10 Sur 17 Sur 0 1013.2 -0.9 73
2019-04-15 14:00:00 19.6 10 Sur 15 Sur 0 1013.7 -0.2 73
2019-04-15 13:00:00 20.4 10 Sur 15 Sur 0 1014 0.1 66
2019-04-15 12:00:00 19.1 9 Sudeste 14 Sudeste 0 1014.1 0.6 65
2019-04-15 11:00:00 20.5 4 Este 11 Nordeste 0 1013.9 0.6 66
2019-04-15 10:00:00 16.3 8 Nordeste 12 Nordeste 0 1013.9 0.5 91
2019-04-15 09:00:00 14.4 7 Nordeste 13 Nordeste 0 1013.5 -0.4 92
2019-04-15 08:00:00 11.3 8 Nordeste 10 Nordeste 0 1013.3 -0.6 91
2019-04-15 07:00:00 12.4 3 Norte 11 Norte 0 1013.4 -1.1 90
2019-04-15 06:00:00 11.4 6 Norte 8 Norte 0 1013.9 -1.2 89
2019-04-15 05:00:00 11.6 2 Nordeste 5 Sudoeste 0 1013.9 -1.7 89
2019-04-15 04:00:00 13.3 3 Oeste 6 Noroeste 0 1014.5 -1.2 88
2019-04-15 03:00:00 13.6 4 Norte 10 Norte 0 1015.1 -0.7 87
2019-04-15 02:00:00 13.2 7 Norte 9 Noroeste 0 1015.6 0 86
2019-04-15 01:00:00 14 3 Noroeste 4 Noroeste 0 1015.7 0.7 85
2019-04-15 00:00:00 14.6 4 Noroeste 8 Oeste 0 1015.8 0.9 86
2019-04-14 23:00:00 16 6 Oeste 16 Oeste 0 1015.6 1.2 86
2019-04-14 22:00:00 17 10 Oeste 25 Oeste 0 1015 0.3 86
2019-04-14 21:00:00 17.4 11 Oeste 30 Oeste 0 1014.9 -0.1 84
2019-04-14 20:00:00 18.5 13 Oeste 23 Sudoeste 0 1014.4 -1.2 81
2019-04-14 19:00:00 19.2 17 Oeste 27 Oeste 0 1014.7 -1.9 76
2019-04-14 18:00:00 20.3 12 Oeste 25 Oeste 0 1015 -2.1 68
2019-04-14 17:00:00 20.9 12 Oeste 25 Sudoeste 0 1015.6 -1.9 68
2019-04-14 16:00:00 20.7 13 Oeste 24 Sudoeste 0 1016.6 -1.4 71
2019-04-14 15:00:00 19.4 13 Sudoeste 21 Sudoeste 0 1017.1 -1.1 74
2019-04-14 14:00:00 18.7 12 Sudoeste 18 Sudoeste 0 1017.5 -0.9 76
2019-04-14 13:00:00 18.5 10 Sudoeste 15 Sudoeste 0 1018 -0.2 79
2019-04-14 12:00:00 17.5 10 Sudeste 15 Sur 0 1018.2 0.1 76
2019-04-14 11:00:00 17.5 6 Sudeste 13 Este 0 1018.4 0.8 82
2019-04-14 10:00:00 15.8 4 Nordeste 8 Nordeste 0 1018.2 0.8 92
2019-04-14 09:00:00 13 4 Nordeste 12 Nordeste 0 1018.1 0.7 92
2019-04-14 08:00:00 10.3 8 Nordeste 12 Nordeste 0 1017.6 0.2 91
2019-04-14 07:00:00 10.2 6 Nordeste 9 Nordeste 0 1017.4 -0.3 91
2019-04-14 06:00:00 10.4 6 Nordeste 9 Nordeste 0 1017.4 -0.9 90
2019-04-14 05:00:00 10.9 5 Nordeste 8 Norte 0 1017.4 -1.3 89
2019-04-14 04:00:00 10.9 7 Norte 9 Norte 0 1017.7 -1.2 88
2019-04-14 03:00:00 11.4 6 Norte 9 Norte 0 1018.3 -0.4 87
2019-04-14 02:00:00 11.8 3 Noroeste 8 Noroeste 0 1018.7 0 86
2019-04-14 01:00:00 12.3 6 Noroeste 9 Noroeste 0 1018.9 0.7 84
2019-04-14 00:00:00 14.7 5 Sudoeste 10 Sudeste 0 1018.7 1.1 84
2019-04-13 23:00:00 14.5 0 Calma 12 Oeste 0 1018.7 1.3 81
2019-04-13 22:00:00 16.2 4 Oeste 24 Oeste 0 1018.2 1.1 80
2019-04-13 21:00:00 17.1 16 Oeste 33 Oeste 0 1017.6 0.4 72
2019-04-13 20:00:00 18 15 Oeste 32 Oeste 0 1017.4 -0.1 72
2019-04-13 19:00:00 19 26 Oeste 41 Oeste 0 1017.1 -1.1 63
2019-04-13 18:00:00 19.4 17 Oeste 33 Oeste 0 1017.2 -1.4 67
2019-04-13 17:00:00 19.3 20 Oeste 32 Oeste 0 1017.5 -1.3 70
2019-04-13 16:00:00 20.5 13 Oeste 24 Sudoeste 0 1018.2 -0.8 69
2019-04-13 15:00:00 19.4 14 Sudoeste 22 Sudoeste 0 1018.6 -0.4 71
2019-04-13 14:00:00 18.6 13 Sudoeste 20 Sudoeste 0 1018.8 -0.1 75
2019-04-13 13:00:00 18 10 Sudoeste 17 Oeste 0 1019 0.4 67
2019-04-13 12:00:00 18.1 8 Sudoeste 12 Sudoeste 0 1019 0.9 71
2019-04-13 11:00:00 16.5 6 Sudoeste 12 Sudoeste 0 1018.9 1.3 88
2019-04-13 10:00:00 15.2 5 Sudoeste 9 Sudoeste 0 1018.6 1.3 91
2019-04-13 09:00:00 11.2 6 Norte 9 Norte 0 1018.1 1.1 91
2019-04-13 08:00:00 8.2 6 Norte 8 Norte 0 1017.6 0.4 89
2019-04-13 07:00:00 8.9 6 Norte 7 Nordeste 0 1017.3 -0.2 88
2019-04-13 06:00:00 9.6 7 Nordeste 10 Nordeste 0 1017 -0.7 88
2019-04-13 05:00:00 9.7 7 Norte 11 Norte 0 1017.2 -0.6 87
2019-04-13 04:00:00 10 7 Norte 11 Norte 0 1017.5 0.1 86
2019-04-13 03:00:00 9.9 4 Noroeste 8 Norte 0 1017.7 0.6 83
2019-04-13 02:00:00 11 3 Sur 8 Norte 0 1017.8 1 82
2019-04-13 01:00:00 11.8 5 Norte 9 Nordeste 0 1017.4 1 80
2019-04-13 00:00:00 14.2 5 Sudoeste 12 Sudoeste 0 1017.1 1.3 81
2019-04-12 23:00:00 15.8 7 Oeste 19 Oeste 0 1016.8 1.1 79
2019-04-12 22:00:00 15.8 11 Oeste 21 Oeste 0 1016.4 0.7 72
2019-04-12 21:00:00 16.7 12 Oeste 20 Oeste 0 1015.8 0.1 65
2019-04-12 20:00:00 18.6 9 Sudoeste 21 Oeste 0 1015.7 -0.2 60
2019-04-12 19:00:00 20.5 9 Oeste 18 Oeste 0 1015.7 -0.8 49
2019-04-12 18:00:00 20.7 12 Oeste 22 Oeste 0 1015.7 -1.4 44
2019-04-12 17:00:00 21.5 11 Oeste 21 Sudoeste 0 1015.9 -1.6 45
2019-04-12 16:00:00 21.4 10 Oeste 19 Sudoeste 0 1016.5 -1.3 40
2019-04-12 15:00:00 20.8 9 Oeste 17 Oeste 0 1017.1 -0.7 39
2019-04-12 14:00:00 19.2 9 Sudoeste 17 Sudoeste 0 1017.5 0.1 47
2019-04-12 13:00:00 18.2 12 Sur 20 Sur 0 1017.8 0.8 49
2019-04-12 12:00:00 18 12 Sudoeste 17 Sudoeste 0 1017.8 1.1 52
2019-04-12 11:00:00 17.5 7 Oeste 13 Oeste 0 1017.4 1.2 56
2019-04-12 10:00:00 14.7 5 Oeste 8 Norte 0 1017 1.1 88
2019-04-12 09:00:00 11.5 6 Norte 9 Noroeste 0 1016.7 1 91
2019-04-12 08:00:00 9.3 8 Noroeste 10 Norte 0 1016.2 0.3 90
2019-04-12 07:00:00 10.1 6 Noroeste 9 Norte 0 1015.9 -0.3 90
2019-04-12 06:00:00 11.7 5 Norte 12 Norte 0 1015.7 -0.7 91
2019-04-12 05:00:00 12.4 10 Norte 14 Norte 0 1015.9 -0.7 91
2019-04-12 04:00:00 13.7 7 Norte 14 Norte 0 1016.2 -0.3 90
2019-04-12 03:00:00 12.7 4 Norte 10 Este 0 1016.4 -0.2 90
2019-04-12 02:00:00 13.6 9 Este 16 Este 0 1016.6 0.4 89
2019-04-12 01:00:00 13.8 11 Este 14 Este 0 1016.5 0.8 88
2019-04-12 00:00:00 14 6 Este 12 Este 0 1016.6 1.5 85
2019-04-11 23:00:00 15.1 7 Este 10 Sudoeste 0 1016.2 1.2 81
2019-04-11 22:00:00 15.8 5 Sudoeste 17 Sudoeste 0 1015.7 0.6 80
2019-04-11 21:00:00 16.2 15 Sudoeste 20 Sudoeste 0 1015.1 0.1 77
2019-04-11 20:00:00 17.5 7 Oeste 23 Oeste 0 1015 -0.3 72
2019-04-11 19:00:00 18.4 11 Oeste 36 Oeste 0 1015.1 -0.5 66
2019-04-11 18:00:00 19.2 15 Oeste 30 Oeste 0 1015 -1.2 60
2019-04-11 17:00:00 19 16 Oeste 31 Oeste 0 1015.3 -1.2 60
2019-04-11 16:00:00 20.1 15 Oeste 28 Sudoeste 0 1015.6 -1.2 51
2019-04-11 15:00:00 18.2 12 Sudoeste 22 Oeste 0 1016.2 -0.4 62
2019-04-11 14:00:00 17.8 14 Sudoeste 23 Sudoeste 0 1016.5 0 64
2019-04-11 13:00:00 17.5 11 Sudoeste 19 Sudoeste 0 1016.8 0.4 66
2019-04-11 12:00:00 17.8 6 Sur 12 Sudeste 0 1016.6 0.6 56
2019-04-11 11:00:00 17.7 5 Sudoeste 15 Oeste 0 1016.5 1.1 58
2019-04-11 10:00:00 15.9 9 Noroeste 15 Noroeste 0 1016.4 1.4 60
2019-04-11 09:00:00 11.1 8 Noroeste 13 Noroeste 0 1016 0.9 83
2019-04-11 08:00:00 9.3 10 Noroeste 14 Noroeste 0 1015.4 0.2 81
2019-04-11 07:00:00 11.6 4 Noroeste 13 Norte 0 1015 0.1 80
2019-04-11 06:00:00 12.6 3 Norte 13 Sudeste 0 1015.1 -0.4 79
2019-04-11 05:00:00 13.5 9 Este 21 Sudeste 0 1015.2 -0.3 75
2019-04-11 04:00:00 14.4 14 Sudeste 33 Este 0 1014.9 -0.4 74
2019-04-11 03:00:00 14.2 17 Este 28 Nordeste 0 1015.5 0.6 69
2019-04-11 02:00:00 14.2 14 Este 26 Sudeste 0 1015.5 0.8 67
2019-04-11 01:00:00 14.7 18 Sudeste 27 Sudeste 0 1015.3 1.4 63
2019-04-11 00:00:00 12.3 9 Nordeste 18 Nordeste 0 1014.9 2.3 69
2019-04-10 23:00:00 13.4 2 Este 13 Oeste 0 1014.7 2.9 65
2019-04-10 22:00:00 14 9 Oeste 13 Oeste 0 1013.9 2.3 66
2019-04-10 21:00:00 16.4 7 Este 13 Este 0 1012.6 0.7 59
2019-04-10 20:00:00 19.1 3 Sur 21 Sudoeste 0 1011.8 -0.6 48
2019-04-10 19:00:00 18.7 13 Oeste 40 Sudoeste 0 1011.6 -1.3 56
2019-04-10 18:00:00 18.4 23 Oeste 51 Oeste 0 1011.9 -1.3 57
2019-04-10 17:00:00 18.1 25 Oeste 49 Oeste 0 1012.4 -1 57
2019-04-10 16:00:00 17.7 32 Oeste 57 Oeste 0 1012.9 -1 57
2019-04-10 15:00:00 17.6 35 Oeste 50 Oeste 0 1013.2 -0.9 57
2019-04-10 14:00:00 17.7 26 Oeste 41 Oeste 0 1013.4 -0.8 59
2019-04-10 13:00:00 18.6 15 Oeste 32 Oeste 0 1013.9 -0.1 53
2019-04-10 12:00:00 18.1 8 Oeste 18 Oeste 0 1014.1 0.7 48
2019-04-10 11:00:00 16.9 8 Sudoeste 26 Sudoeste 0 1014.2 0.7 60
2019-04-10 10:00:00 16.9 15 Nordeste 26 Nordeste 0 1014 0.5 59
2019-04-10 09:00:00 12.6 15 Nordeste 23 Nordeste 0 1013.4 0 73
2019-04-10 08:00:00 10.1 4 Norte 13 Sudoeste 0 1013.5 0.2 78
2019-04-10 07:00:00 10.1 7 Noroeste 17 Noroeste 0 1013.5 0.2 82
2019-04-10 06:00:00 10 10 Noroeste 15 Oeste 0 1013.4 -0.5 82
2019-04-10 05:00:00 10.5 10 Norte 13 Norte 0 1013.3 -1.3 81
2019-04-10 04:00:00 11.4 10 Norte 19 Oeste 0 1013.3 -1.3 72
2019-04-10 03:00:00 13.6 12 Oeste 32 Oeste 0 1013.9 -0.8 70
2019-04-10 02:00:00 15 20 Oeste 43 Oeste 0 1014.6 0 65
2019-04-10 01:00:00 15.3 30 Oeste 48 Oeste 0 1014.6 0.5 70
2019-04-10 00:00:00 14.9 25 Oeste 46 Oeste 0 1014.7 0.9 77
2019-04-09 23:00:00 15.3 28 Oeste 55 Oeste 0 1014.6 1 76
2019-04-09 22:00:00 15.5 30 Oeste 61 Oeste 0 1014.1 0.4 75
2019-04-09 21:00:00 15.8 41 Oeste 72 Oeste 0 1013.8 0 74
2019-04-09 20:00:00 16.5 43 Oeste 65 Oeste 0 1013.6 -0.5 70
2019-04-09 19:00:00 16.9 39 Oeste 75 Oeste 0 1013.7 -0.9 69
2019-04-09 18:00:00 17.4 36 Oeste 64 Oeste 0 1013.8 -1.1 67
2019-04-09 17:00:00 17.6 33 Oeste 67 Oeste 0 1014.1 -1.2 65
2019-04-09 16:00:00 17.6 39 Oeste 62 Oeste 0 1014.6 -1 61
2019-04-09 15:00:00 17.6 32 Oeste 62 Oeste 0 1014.9 -0.8 57
2019-04-09 14:00:00 17.6 37 Oeste 68 Oeste 0 1015.3 -0.4 58
2019-04-09 13:00:00 18 36 Oeste 55 Oeste 0 1015.6 0 54
2019-04-09 12:00:00 16.9 36 Oeste 57 Oeste 0 1015.7 0.6 58
2019-04-09 11:00:00 16.3 28 Oeste 46 Oeste 0 1015.7 1.5 60
2019-04-09 10:00:00 16.1 26 Oeste 42 Oeste 0 1015.6 1.5 58
2019-04-09 09:00:00 13.8 9 Noroeste 46 Oeste 0 1015.1 1.2 64
2019-04-09 08:00:00 14.9 29 Oeste 46 Oeste 0 1014.2 0.3 64
2019-04-09 07:00:00 14.5 22 Oeste 40 Oeste 0 1014.1 0.2 70
2019-04-09 06:00:00 13.9 12 Noroeste 43 Oeste 0 1013.9 -0.3 79
2019-04-09 05:00:00 14.9 22 Oeste 51 Noroeste 0 1013.9 -0.6 80
2019-04-09 04:00:00 14.9 27 Oeste 57 Oeste 0 1013.9 -0.5 84
2019-04-09 03:00:00 14.9 35 Oeste 55 Oeste 0 1014.2 -0.2 85
2019-04-09 02:00:00 15.1 30 Oeste 61 Oeste 0 1014.5 0 85
2019-04-09 01:00:00 15.4 36 Oeste 58 Oeste 0 1014.4 0.2 84
2019-04-09 00:00:00 15.5 34 Oeste 60 Oeste 0 1014.4 0.4 81
2019-04-08 23:00:00 15.8 36 Oeste 54 Oeste 0 1014.5 1.1 78
2019-04-08 22:00:00 16.2 30 Oeste 48 Oeste 0 1014.2 0.8 78
2019-04-08 21:00:00 16.2 27 Oeste 57 Sudoeste 0 1014 0.7 77
2019-04-08 20:00:00 17.1 28 Oeste 60 Oeste 0 1013.4 -0.5 75
2019-04-08 19:00:00 17.5 24 Oeste 62 Oeste 0 1013.4 -1.3 76
2019-04-08 18:00:00 17.6 35 Oeste 72 Oeste 0 1013.3 -1.9 75
2019-04-08 17:00:00 17.9 42 Oeste 62 Oeste 0 1013.9 -1.7 73
2019-04-08 16:00:00 18 37 Oeste 58 Oeste 0 1014.7 -1.4 75
2019-04-08 15:00:00 17.9 33 Oeste 59 Oeste 0 1015.2 -- 75
2019-04-08 14:00:00 17.8 33 Oeste 56 Oeste 0 1015.6 -- 75
2019-04-08 13:00:00 17.5 31 Oeste -- -- -- 1016.1 0.5 74
2019-04-08 12:00:00 -- -- -- -- -- -- -- -- --
2019-04-08 11:00:00 -- -- -- -- -- -- -- -- --
2019-04-08 10:00:00 16.1 28 Oeste 49 Oeste 0 1015.6 1.1 84
2019-04-08 09:00:00 15.1 24 Oeste 44 Oeste 0 1015.1 0.3 87
2019-04-08 08:00:00 15 25 Oeste 44 Oeste 0 1014.9 0 87
2019-04-08 07:00:00 14.9 28 Oeste 49 Oeste 0 1014.5 -0.9 87
2019-04-08 06:00:00 15 22 Oeste 43 Oeste 0 1014.8 -0.9 85
2019-04-08 05:00:00 14.6 21 Oeste 39 Oeste 0 1014.9 -1.3 86
2019-04-08 04:00:00 15 23 Oeste 37 Oeste 0 1015.4 -1 85
2019-04-08 03:00:00 14.6 23 Oeste 42 Oeste 0 1015.7 -0.9 86
2019-04-08 02:00:00 15.4 19 Oeste 37 Oeste 0 1016.2 -0.2 85
2019-04-08 01:00:00 15.3 22 Oeste 45 Oeste 0 1016.4 0.4 84
2019-04-08 00:00:00 15.2 27 Oeste 46 Oeste 0 1016.6 1.4 82
2019-04-07 23:00:00 15.2 20 Oeste 42 Oeste 0 1016.4 1.5 80
2019-04-07 22:00:00 15.3 27 Oeste 57 Oeste 0 1016 2.1 77
2019-04-07 21:00:00 15.5 38 Oeste 55 Oeste 0 1015.2 1.4 76
2019-04-07 20:00:00 16.7 36 Oeste 70 Oeste 0 1014.9 1.1 68
2019-04-07 19:00:00 17.1 44 Oeste 64 Oeste 0 1013.9 0.2 68
2019-04-07 18:00:00 17.5 24 Oeste 60 Oeste 0 1013.8 0.9 64
2019-04-07 17:00:00 17.9 27 Oeste 54 Oeste 0 1013.8 1 58
2019-04-07 16:00:00 18.1 27 Oeste 67 Oeste 0 1013.7 1.2 56
2019-04-07 15:00:00 17.5 38 Oeste 73 Oeste 0 1012.9 0.8 58
2019-04-07 14:00:00 17.5 32 Oeste 62 Oeste 0 1012.8 1.3 56
2019-04-07 13:00:00 17.1 34 Oeste 68 Oeste 0 1012.5 1.3 50
2019-04-07 12:00:00 16.5 30 Oeste 69 Oeste 0 1012.1 1.7 55
2019-04-07 11:00:00 15.8 26 Oeste 62 Oeste 0 1011.5 1.3 59
2019-04-07 10:00:00 15.1 40 Oeste 63 Oeste 0 1011.2 1.8 54
2019-04-07 09:00:00 14.3 28 Oeste 58 Oeste 0 1010.4 1.2 60
2019-04-07 08:00:00 13.9 43 Oeste 65 Oeste 0 1010.2 0.6 59
2019-04-07 07:00:00 14.2 36 Oeste 61 Oeste 0 1009.4 -0.7 58
2019-04-07 06:00:00 14 32 Oeste 68 Oeste 0 1009.2 -1.2 60
2019-04-07 05:00:00 13.8 40 Oeste 67 Oeste 0 1009.6 -1.3 64
2019-04-07 04:00:00 13.5 34 Oeste 60 Oeste 0 1010.1 -0.8 65
2019-04-07 03:00:00 13.6 32 Oeste 58 Oeste 0 1010.4 0 65
2019-04-07 02:00:00 12.9 24 Oeste 57 Oeste 0 1010.9 1.3 59
2019-04-07 01:00:00 12.2 16 Oeste 39 Noroeste 0 1010.9 1.6 61
2019-04-07 00:00:00 13 21 Oeste 60 Oeste 0 1010.4 1.9 61
2019-04-06 23:00:00 13.5 34 Oeste 61 Oeste 0 1009.6 1.2 60
2019-04-06 22:00:00 13.3 23 Oeste 56 Oeste 0 1009.3 1 70
2019-04-06 21:00:00 14.1 38 Oeste 64 Oeste 0 1008.5 0.7 70
2019-04-06 20:00:00 14.3 35 Oeste 71 Oeste 0 1008.4 0.3 67
2019-04-06 19:00:00 14.8 42 Oeste 67 Oeste 0 1008.3 0.2 68
2019-04-06 18:00:00 13.5 36 Oeste 67 Oeste 0.2 1007.8 0 80
2019-04-06 17:00:00 13.6 42 Oeste 78 Oeste 0.4 1008.1 0.3 73
2019-04-06 16:00:00 15 44 Oeste 78 Oeste 0 1008.1 0.3 68
2019-04-06 15:00:00 15.8 37 Oeste 64 Sudoeste 0 1007.8 -0.2 60
2019-04-06 14:00:00 16 34 Oeste 66 Oeste 0 1007.8 0.2 57
2019-04-06 13:00:00 15.9 35 Oeste 68 Oeste 0 1007.8 0.7 55
2019-04-06 12:00:00 15.3 44 Oeste 70 Oeste 0 1008 1.5 54
2019-04-06 11:00:00 14.6 44 Oeste 67 Oeste 0 1007.6 1.9 56
2019-04-06 10:00:00 14 42 Oeste 70 Oeste 0 1007.1 1.6 55
2019-04-06 09:00:00 13.2 43 Oeste 82 Oeste 0 1006.5 1.1 60
2019-04-06 08:00:00 13 47 Oeste 77 Oeste 0 1005.7 0.8 60
2019-04-06 07:00:00 12.9 41 Oeste 72 Oeste 0 1005.5 0.6 59
2019-04-06 06:00:00 12.9 44 Oeste 71 Oeste 0 1005.4 0.5 53
2019-04-06 05:00:00 12.7 37 Oeste 63 Oeste 0 1004.9 -0.3 53
2019-04-06 04:00:00 13.1 40 Oeste 67 Oeste 0 1004.9 -0.4 55
2019-04-06 03:00:00 13.6 48 Oeste 76 Oeste 0 1004.9 -0.5 55
2019-04-06 02:00:00 13.9 35 Oeste 64 Oeste 0 1005.2 0.5 57
2019-04-06 01:00:00 14 27 Oeste 60 Oeste 0 1005.3 1.6 52
2019-04-06 00:00:00 14.3 31 Oeste 64 Oeste 0 1005.4 3.2 50
2019-04-05 23:00:00 13.7 34 Oeste 55 Oeste 0 1004.7 2.2 45
2019-04-05 22:00:00 13.1 24 Oeste 47 Oeste 0 1003.7 1.3 44
2019-04-05 21:00:00 14.3 35 Oeste 77 Oeste 0 1002.2 -0.5 59
2019-04-05 20:00:00 14.6 42 Oeste 70 Oeste 0 1002.5 -0.4 61
2019-04-05 19:00:00 14.4 29 Oeste 55 Sudoeste 0 1002.4 -1.3 73
2019-04-05 18:00:00 13.9 27 Oeste 50 Sudoeste 0 1002.7 -1.2 78
2019-04-05 17:00:00 13 32 Oeste 55 Oeste 1.2 1002.9 -1.3 82
2019-04-05 16:00:00 12.1 26 Oeste 63 Oeste 1.4 1003.7 -0.7 85
2019-04-05 15:00:00 13.2 28 Oeste 68 Oeste 1 1003.9 -0.5 83
2019-04-05 14:00:00 13.5 41 Oeste 69 Oeste 0.4 1004.2 -0.1 80
2019-04-05 13:00:00 13.2 35 Oeste 61 Oeste 3 1004.4 0.5 82
2019-04-05 12:00:00 14.8 23 Oeste 49 Oeste 0 1004.4 0.5 68
2019-04-05 11:00:00 15.2 30 Oeste 62 Oeste 0 1004.3 0.7 68
2019-04-05 10:00:00 14.9 34 Oeste 66 Oeste 0 1003.9 0.5 67
2019-04-05 09:00:00 14.8 33 Oeste 55 Oeste 0 1003.9 0.9 65
2019-04-05 08:00:00 13.9 34 Oeste 54 Oeste 0 1003.6 0.3 61
2019-04-05 07:00:00 12.2 15 Oeste 25 Oeste 0 1003.4 -0.5 71
2019-04-05 06:00:00 13.2 11 Noroeste 43 Oeste 0 1003 -1.6 68
2019-04-05 05:00:00 14.1 32 Oeste 53 Oeste 0 1003.3 -1.4 66
2019-04-05 04:00:00 14.1 37 Oeste 57 Oeste 0 1003.9 -0.7 65
2019-04-05 03:00:00 14 40 Oeste 65 Oeste 0 1004.6 0 63
2019-04-05 02:00:00 14.3 38 Oeste 59 Oeste 0 1004.7 -0.1 67
2019-04-05 01:00:00 14.2 32 Oeste 50 Oeste 0.2 1004.6 0.2 69
2019-04-05 00:00:00 12.8 15 Oeste 27 Oeste 0 1004.6 0.3 84
2019-04-04 23:00:00 12.6 8 Noroeste 10 Oeste 0 1004.8 0.4 82
2019-04-04 22:00:00 13.7 5 Noroeste 10 Noroeste 0 1004.4 0 82
2019-04-04 21:00:00 14.3 7 Norte 21 Norte 0 1004.3 -0.1 78
2019-04-04 20:00:00 15.3 9 Sudeste 16 Sudeste 0 1004.4 0 69
2019-04-04 19:00:00 15.3 10 Sudeste 19 Sudeste 0 1004.4 -0.2 70
2019-04-04 18:00:00 15.1 11 Sudeste 31 Sudeste 0 1004.4 -0.4 71
2019-04-04 17:00:00 16.3 16 Sudeste 31 Sudeste 0 1004.4 -0.6 65
2019-04-04 16:00:00 16.8 20 Sudeste 35 Sudeste 0 1004.6 -0.3 64
2019-04-04 15:00:00 17.5 20 Sudeste 39 Este 0 1004.8 0.1 61
2019-04-04 14:00:00 17.9 23 Sudeste 41 Sudeste 0 1005 0.9 61
2019-04-04 13:00:00 18.5 21 Este 37 Este 0 1004.9 1.4 57
2019-04-04 12:00:00 17.4 22 Este 42 Este 0 1004.7 1.9 62
2019-04-04 11:00:00 15.8 24 Este 50 Este 0 1004.1 2.2 70
2019-04-04 10:00:00 15.1 31 Este 54 Este 0 1003.5 2.4 77
2019-04-04 09:00:00 14 34 Este 51 Este 0 1002.8 2 87
2019-04-04 08:00:00 13.1 13 Este 21 Este 0 1001.9 1.2 91
2019-04-04 07:00:00 10.7 8 Nordeste 12 Nordeste 0 1001.1 0.7 90
2019-04-04 06:00:00 11.6 5 Norte 11 Norte 0 1000.8 0.3 88
2019-04-04 05:00:00 11.2 9 Norte 16 Oeste 0 1000.7 -0.2 86
2019-04-04 04:00:00 12.8 11 Noroeste 26 Oeste 0 1000.4 -0.8 86
2019-04-04 03:00:00 12.1 6 Noroeste 22 Oeste 0 1000.5 -1 88
2019-04-04 02:00:00 12.9 2 Este 13 Oeste 0 1000.9 -1 85
2019-04-04 01:00:00 14.5 6 Norte 14 Sudoeste 0 1001.2 -0.5 86
2019-04-04 00:00:00 16.1 9 Oeste 24 Oeste 0 1001.5 -0.4 86
2019-04-03 23:00:00 16.3 19 Oeste 31 Oeste 0 1001.9 0.1 84
2019-04-03 22:00:00 16.2 5 Oeste 27 Oeste 0 1001.7 -0.2 81
2019-04-03 21:00:00 16.4 13 Noroeste 40 Oeste 0 1001.9 -0.4 78
2019-04-03 20:00:00 17.6 24 Oeste 41 Oeste 0 1001.8 -2 76
2019-04-03 19:00:00 18.7 20 Oeste 48 Sudoeste 0 1001.9 -3.4 71
2019-04-03 18:00:00 19.4 23 Oeste 41 Sudoeste 0 1002.3 -4.2 69
2019-04-03 17:00:00 18.7 21 Oeste 36 Oeste 0 1003.8 -3.9 73
2019-04-03 16:00:00 19.8 19 Oeste 39 Sudoeste 0 1005.3 -3.1 68
2019-04-03 15:00:00 18.8 18 Oeste 31 Oeste 0 1006.5 -2.1 69
2019-04-03 14:00:00 18.8 16 Oeste 26 Oeste 0 1007.7 -0.9 71
2019-04-03 13:00:00 17.9 14 Sudoeste 22 Sudoeste 0 1008.4 -0.7 76
2019-04-03 12:00:00 16.6 7 Oeste 13 Sudoeste 0 1008.6 -0.8 84
2019-04-03 11:00:00 15.3 5 Sur 9 Sudoeste 0 1008.6 -1.3 89
2019-04-03 10:00:00 14.9 0 Calma 10 Nordeste 0 1009.1 -1.2 91
2019-04-03 09:00:00 12.1 6 Nordeste 14 Noroeste 0 1009.4 -1.3 91
2019-04-03 08:00:00 10.9 6 Norte 11 Noroeste 0 1009.9 -1.4 90
2019-04-03 07:00:00 12.3 9 Noroeste 18 Oeste 0 1010.3 -1.7 90
2019-04-03 06:00:00 14.4 12 Oeste 19 Oeste 0 1010.7 -2.1 90
2019-04-03 05:00:00 14.4 8 Oeste 17 Oeste 0 1011.3 -1.9 90
2019-04-03 04:00:00 15.3 8 Oeste 24 Sudoeste 0 1012 -1.8 89
2019-04-03 03:00:00 15.7 14 Oeste 30 Sudoeste 0 1012.8 -0.8 87
2019-04-03 02:00:00 15.8 12 Oeste 26 Oeste 0 1013.2 -0.4 86
2019-04-03 01:00:00 15.8 14 Oeste 27 Sudoeste 0 1013.8 0.8 84
2019-04-03 00:00:00 16 11 Oeste 28 Oeste 0 1013.6 0.7 82
2019-04-02 23:00:00 16.4 13 Oeste 32 Oeste 0 1013.6 0.7 79
2019-04-02 22:00:00 16.6 19 Oeste 29 Oeste 0 1013 -0.1 78
2019-04-02 21:00:00 16.5 19 Oeste 36 Oeste 0 1012.9 -0.4 72
2019-04-02 20:00:00 17.1 21 Oeste 43 Oeste 0 1012.9 -1.1 73
2019-04-02 19:00:00 18.3 19 Oeste 35 Oeste 0 1013.1 -1.4 66
2019-04-02 18:00:00 18.7 13 Oeste 25 Oeste 0 1013.3 -1.8 70
2019-04-02 17:00:00 19.4 13 Oeste 26 Oeste 0 1014 -1.9 67
2019-04-02 16:00:00 19.1 13 Oeste 29 Sudoeste 0 1014.5 -2.1 70
2019-04-02 15:00:00 18.6 17 Sudoeste 27 Oeste 0 1015.1 -1.8 73
2019-04-02 14:00:00 18.6 14 Oeste 24 Sudoeste 0 1015.9 -0.7 73
2019-04-02 13:00:00 17.7 15 Sudoeste 21 Sudoeste 0 1016.6 0.1 73
2019-04-02 12:00:00 16.8 10 Sudoeste 17 Sudoeste 0 1016.9 0.3 76
2019-04-02 11:00:00 16.4 6 Sudoeste 12 Oeste 0 1016.6 0.6 82
2019-04-02 10:00:00 14.7 3 Noroeste 6 Este 0 1016.5 0.3 89
2019-04-02 09:00:00 12.8 4 Este 7 Nordeste 0 1016.6 0.6 90
2019-04-02 08:00:00 12.2 4 Nordeste 8 Nordeste 0 1016 -0.3 88
2019-04-02 07:00:00 13.7 5 Nordeste 9 Este 0 1016.2 -0.5 88
2019-04-02 06:00:00 14.3 5 Este 9 Este 0 1016 -0.9 89
2019-04-02 05:00:00 14.9 3 Norte 8 Norte 0 1016.3 -0.6 89
2019-04-02 04:00:00 14.8 0 Calma 6 Norte 0 1016.7 0.1 89
2019-04-02 03:00:00 14.2 3 Norte 8 Noroeste 0 1016.9 0.8 88
2019-04-02 02:00:00 14 5 Noroeste 22 Oeste 0 1016.9 1.1 87
2019-04-02 01:00:00 15.6 13 Oeste 30 Sudoeste 0 1016.6 1.8 86
2019-04-02 00:00:00 15.7 16 Oeste 31 Sudoeste 0 1016.1 1.9 84
2019-04-01 23:00:00 15.9 13 Oeste 26 Noroeste 0 1015.8 1.8 79
2019-04-01 22:00:00 15.4 13 Noroeste 36 Oeste 0 1014.8 0.9 77
2019-04-01 21:00:00 15.8 12 Oeste 28 Noroeste 0 1014.2 0.3 79
2019-04-01 20:00:00 17.2 13 Oeste 38 Sudoeste 0 1014 -0.1 76
2019-04-01 19:00:00 18.4 19 Oeste 37 Sudoeste 0 1013.9 -0.5 70
2019-04-01 18:00:00 19.1 19 Oeste 39 Sudoeste 0 1013.9 -1 69
2019-04-01 17:00:00 18.6 23 Sudoeste 32 Oeste 0 1014.1 -1 74
2019-04-01 16:00:00 18.6 16 Sudoeste 29 Sudoeste 0 1014.4 -1.1 75
2019-04-01 15:00:00 18.3 15 Sudoeste 24 Sudoeste 0 1014.9 -0.3 74
2019-04-01 14:00:00 17.8 16 Sudoeste 25 Sudoeste 0 1015.1 0.4 76
2019-04-01 13:00:00 17.5 16 Sudoeste 23 Sudoeste 0.2 1015.5 1.3 78
2019-04-01 12:00:00 17 14 Sudoeste 21 Sudoeste 0 1015.2 1.7 81
2019-04-01 11:00:00 16.2 12 Sudoeste 21 Sudoeste 0 1014.7 1.9 85
2019-04-01 10:00:00 15.5 11 Sudoeste 18 Sudoeste 0 1014.2 1.8 90
2019-04-01 09:00:00 15 13 Sudoeste 21 Sudoeste 0 1013.5 1.1 90
2019-04-01 08:00:00 14.7 10 Sudoeste 22 Oeste 0 1012.8 0.3 89
2019-04-01 07:00:00 14.8 12 Oeste 23 Oeste 0 1012.4 -0.5 89
2019-04-01 06:00:00 14.8 10 Oeste 23 Sudoeste 0 1012.4 -0.6 89
2019-04-01 05:00:00 14.9 13 Oeste 25 Oeste 0 1012.5 -0.5 88
2019-04-01 04:00:00 14.8 13 Oeste 21 Oeste 0 1012.9 0 88
2019-04-01 03:00:00 14.9 11 Oeste 23 Sudoeste 0 1013 0.2 88
2019-04-01 02:00:00 14.7 15 Sudoeste 22 Sudoeste 0 1013 0.6 89
2019-04-01 01:00:00 14.7 10 Oeste 19 Oeste 0 1012.9 1.2 90
2019-04-01 00:00:00 14.6 9 Oeste 17 Sudoeste 0 1012.8 1.7 90
2019-03-31 23:00:00 14.4 6 Oeste 17 Oeste 0 1012.4 1.6 91
2019-03-31 22:00:00 14.3 12 Oeste 20 Oeste 0 1011.7 1.6 91
2019-03-31 21:00:00 14.3 10 Oeste 16 Oeste 0.2 1011.1 0.9 91
2019-03-31 20:00:00 14.4 14 Oeste 21 Oeste 0 1010.8 0.5 90
2019-03-31 19:00:00 15 5 Noroeste 10 Oeste 0.2 1010.1 -0.2 90
2019-03-31 18:00:00 14.8 6 Noroeste 22 Oeste 0 1010.2 -0.4 90
2019-03-31 17:00:00 14.4 14 Oeste 23 Oeste 0.2 1010.3 -0.8 89
2019-03-31 16:00:00 15 13 Oeste 19 Oeste 0 1010.3 -1.4 88
2019-03-31 15:00:00 15 5 Oeste 14 Oeste 0.6 1010.6 -1 88
2019-03-31 14:00:00 14.5 4 Nordeste 21 Nordeste 1 1011.1 -0.3 86
2019-03-31 13:00:00 14.6 13 Nordeste 34 Nordeste 0 1011.7 0.3 79
2019-03-31 12:00:00 15.9 21 Este 36 Este 0 1011.6 0.1 67
2019-03-31 11:00:00 15.8 22 Este 34 Este 0 1011.4 -0.2 68
2019-03-31 10:00:00 15.1 21 Este 38 Nordeste 0 1011.4 -0.1 72
2019-03-31 09:00:00 14.4 23 Este 43 Este 0 1011.5 -0.5 72
2019-03-31 08:00:00 14.3 22 Este 42 Este 0 1011.6 -1.3 72
2019-03-31 07:00:00 14.6 25 Este 39 Este 0 1011.5 -2.1 71
2019-03-31 06:00:00 14.4 23 Este 36 Este 0 1012 -2.5 73
2019-03-31 05:00:00 14 19 Este 41 Este 0 1012.9 -2.3 78
2019-03-31 03:00:00 14.3 15 Este 35 Este 0 1014.5 -2.5 80
2019-03-31 01:00:00 13.6 24 Este 56 Este 0 1015.2 -1.9 81
2019-03-31 00:00:00 13.6 35 Este 59 Este 0 1016.2 -0.8 84
2019-03-30 23:00:00 13.7 28 Este 48 Este 0.6 1017 1.8 86
2019-03-30 22:00:00 13.6 31 Este 51 Este 1.4 1017.1 2.7 83
2019-03-30 21:00:00 14.3 37 Este 61 Sudeste 0.4 1017 2.3 78
2019-03-30 20:00:00 14.7 40 Este 62 Sudeste 0.6 1015.2 0.2 77
2019-03-30 19:00:00 16.4 33 Este 59 Este 0 1014.4 -1.5 65
2019-03-30 18:00:00 16.8 32 Este 59 Este 0 1014.7 -2.5 63
2019-03-30 17:00:00 18 32 Este 58 Sudeste 0 1015 -2.6 57
2019-03-30 16:00:00 18.8 27 Este 58 Este 0 1015.9 -2 56
2019-03-30 15:00:00 17.7 37 Sudeste 63 Este 0 1017.2 -1.8 61
2019-03-30 14:00:00 18.6 39 Este 64 Este 0 1017.6 -2.7 54
2019-03-30 13:00:00 18.5 40 Este 67 Este 0 1017.9 -2.2 50
2019-03-30 12:00:00 18.2 34 Este 59 Este 0 1019 -1.2 52
2019-03-30 11:00:00 17.4 31 Este 60 Este 0 1020.3 0 53
2019-03-30 10:00:00 15.2 28 Este 49 Este 0 1020.1 -0.4 59
2019-03-30 09:00:00 15.5 26 Este 45 Este 0 1020.2 0 57
2019-03-30 08:00:00 13.8 28 Este 46 Este 0 1020.3 0.1 58
2019-03-30 07:00:00 13.6 25 Este 49 Este 0 1020.5 0 63
2019-03-30 06:00:00 14 28 Este 48 Este 0 1020.2 -0.8 62
2019-03-30 05:00:00 14.6 25 Este 40 Sudeste 0 1020.2 -1 61
2019-03-30 04:00:00 14.5 17 Este 40 Este 0 1020.5 -1.8 57
2019-03-30 03:00:00 14.2 24 Este 44 Este 0 1021 -1.8 56
2019-03-30 02:00:00 14 26 Este 51 Este 0 1021.2 -1.7 61
2019-03-30 01:00:00 14.1 30 Este 52 Este 0 1022.3 -0.2 63
2019-03-30 00:00:00 14.2 29 Este 54 Este 0 1022.8 1 65
2019-03-29 23:00:00 14.3 32 Este 56 Este 0 1022.9 1.8 67
2019-03-29 22:00:00 14.6 37 Este 63 Este 0 1022.5 2 69
2019-03-29 21:00:00 14.8 33 Este 61 Este 0 1021.8 1.7 69
2019-03-29 20:00:00 15.1 35 Este 65 Este 0 1021.1 0.5 65
2019-03-29 19:00:00 16.2 36 Este 59 Este 0 1020.5 -0.6 60
2019-03-29 18:00:00 16.9 34 Este 65 Este 0 1020.1 -1.5 57
2019-03-29 17:00:00 17 32 Este 62 Este 0 1020.6 -1.6 55
2019-03-29 16:00:00 18.5 39 Este 67 Sudeste 0 1021.1 -1.7 50
2019-03-29 15:00:00 18.9 34 Este 63 Este 0 1021.6 -1.4 50
2019-03-29 14:00:00 19.5 34 Este 60 Este 0 1022.2 -1.2 48
2019-03-29 13:00:00 18.5 35 Este 64 Este 0 1022.8 -0.6 48
2019-03-29 12:00:00 18.8 35 Este 64 Este 0 1023 -0.6 47
2019-03-29 11:00:00 17.8 42 Este 69 Este 0 1023.4 -0.1 45
2019-03-29 10:00:00 16.9 36 Este 59 Este 0 1023.4 0.3 42
2019-03-29 09:00:00 15.7 33 Este 62 Este 0 1023.6 0.3 45
2019-03-29 08:00:00 14.4 32 Este 51 Nordeste 0 1023.5 0.1 48
2019-03-29 07:00:00 13.8 32 Este 54 Este 0 1023.1 -0.4 47
2019-03-29 06:00:00 13.8 29 Este 47 Este 0 1023.3 -0.6 47
2019-03-29 05:00:00 14.3 30 Este 49 Nordeste 0 1023.4 -0.5 41
2019-03-29 04:00:00 14.4 27 Este 49 Este 0 1023.5 -1 38
2019-03-29 03:00:00 14.3 28 Este 45 Este 0 1023.9 -1.1 38
2019-03-29 02:00:00 14.3 28 Este 44 Este 0 1023.9 -0.9 39
2019-03-29 01:00:00 14.4 26 Este 44 Este 0 1024.5 -0.5 37
2019-03-29 00:00:00 13.6 17 Nordeste 37 Nordeste 0 1025 0.2 41
2019-03-28 23:00:00 13.7 24 Este 48 Este 0 1024.8 0.8 60
2019-03-28 22:00:00 14.1 31 Este 51 Este 0 1025 1.4 64
2019-03-28 21:00:00 14.4 30 Este 59 Este 0 1024.8 1.3 63
2019-03-28 20:00:00 15 30 Este 59 Este 0 1024 0.1 60
2019-03-28 19:00:00 15.7 33 Este 62 Este 0 1023.6 -0.6 56
2019-03-28 18:00:00 16.4 39 Este 57 Sudeste 0 1023.5 -1.1 58
2019-03-28 17:00:00 16.9 37 Este 57 Sudeste 0 1023.9 -1.5 56
2019-03-28 16:00:00 17.4 33 Sudeste 54 Sudeste 0 1024.2 -2.1 50
2019-03-28 15:00:00 17.8 33 Sudeste 55 Este 0 1024.6 -2.1 48
2019-03-28 14:00:00 18 29 Sudeste 50 Este 0 1025.4 -1.6 45
2019-03-28 13:00:00 18.5 27 Sudeste 41 Sudeste 0 1026.3 -0.2 46
2019-03-28 12:00:00 19.5 23 Este 41 Este 0 1026.7 1 28
2019-03-28 11:00:00 18.5 23 Este 39 Este 0 1027 1.6 30
2019-03-28 10:00:00 17.7 23 Este 41 Este 0 1026.5 1.5 27
2019-03-28 09:00:00 15.8 29 Este 48 Nordeste 0 1025.7 1.3 27
2019-03-28 08:00:00 13.2 18 Nordeste 34 Nordeste 0 1025.4 0.7 36
2019-03-28 07:00:00 12.4 20 Nordeste 33 Nordeste 0 1025 0.2 39
2019-03-28 06:00:00 12.3 22 Nordeste 33 Nordeste 0 1024.4 -0.4 43
2019-03-28 05:00:00 11.7 14 Nordeste 28 Nordeste 0 1024.7 -0.2 43
2019-03-28 04:00:00 12.3 16 Nordeste 39 Nordeste 0 1024.8 -0.3 44
2019-03-28 03:00:00 13.3 22 Este 38 Este 0 1024.8 -0.1 46
2019-03-28 02:00:00 13.4 23 Este 40 Este 0 1024.9 0.1 44
2019-03-28 01:00:00 13.5 23 Este 37 Este 0 1025.1 0.6 47
2019-03-28 00:00:00 13.7 23 Este 48 Este 0 1024.9 1.4 51
2019-03-27 23:00:00 13.9 32 Este 56 Este 0 1024.8 2.6 60
2019-03-27 22:00:00 14.3 33 Este 61 Este 0 1024.5 3.4 63
2019-03-27 21:00:00 14.5 29 Este 61 Este 0 1023.5 3.2 61
2019-03-27 20:00:00 15 31 Este 55 Este 0 1022.2 2.2 58
2019-03-27 19:00:00 16.2 32 Este 63 Este 0 1021.1 1 53
2019-03-27 18:00:00 17.2 37 Este 62 Este 0 1020.3 0.2 51
2019-03-27 17:00:00 18.1 39 Este 67 Este 0 1020 -0.4 49
2019-03-27 16:00:00 18.6 41 Este 70 Este 0 1020.1 -0.4 42
2019-03-27 15:00:00 18.8 40 Este 74 Este 0 1020.1 -0.5 41
2019-03-27 14:00:00 19.1 37 Este 65 Este 0 1020.4 -0.2 41
2019-03-27 13:00:00 18.9 41 Este 71 Este 0 1020.5 0.3 35
2019-03-27 12:00:00 18.3 46 Este 78 Este 0 1020.6 0.6 33
2019-03-27 11:00:00 17.6 48 Este 76 Este 0 1020.6 0.8 32
2019-03-27 10:00:00 16.8 40 Este 68 Este 0 1020.2 0.9 30
2019-03-27 09:00:00 15.3 36 Nordeste 71 Nordeste 0 1020 1.5 38
2019-03-27 08:00:00 14 36 Nordeste 78 Nordeste 0 1019.8 1.2 42
2019-03-27 07:00:00 13.7 49 Este 81 Este 0 1019.3 1 43
2019-03-27 06:00:00 13.7 41 Nordeste 82 Nordeste 0 1018.5 -0.2 43
2019-03-27 05:00:00 13.9 45 Nordeste 81 Este 0 1018.6 -0.2 42
2019-03-27 04:00:00 14.1 42 Este 79 Nordeste 0 1018.3 -0.6 40
2019-03-27 03:00:00 14.1 39 Nordeste 76 Nordeste 0 1018.7 -0.1 40
2019-03-27 02:00:00 13.8 35 Nordeste 84 Este 0 1018.8 1 45
2019-03-27 01:00:00 14.1 50 Este 85 Este 0 1018.9 2.4 52
2019-03-27 00:00:00 14.5 53 Este 86 Este 0 1018.8 3.7 47
2019-03-26 23:00:00 15.1 44 Este 80 Este 0 1017.8 3 50
2019-03-26 22:00:00 15.5 47 Este 80 Este 0 1016.5 2.4 54
2019-03-26 21:00:00 15.9 52 Este 87 Este 0 1015.1 1.7 50
2019-03-26 20:00:00 16 47 Este 88 Este 0 1014.8 1.2 59
2019-03-26 19:00:00 16.4 45 Este 81 Este 0 1014.1 0.4 63
2019-03-26 18:00:00 17.1 50 Este 84 Este 0 1013.4 -0.7 61
2019-03-26 17:00:00 18 50 Este 85 Este 0 1013.6 -0.7 59
2019-03-26 16:00:00 19.4 54 Este 87 Este 0 1013.7 -1 48
2019-03-26 15:00:00 20.2 46 Este 81 Este 0 1014.1 -0.6 47
2019-03-26 14:00:00 20.3 46 Este 90 Este 0 1014.3 0.1 44
2019-03-26 13:00:00 20.9 46 Este 78 Este 0 1014.7 0.9 41
2019-03-26 12:00:00 21 44 Este 77 Este 0 1014.7 1.3 31
2019-03-26 11:00:00 20.9 46 Este 75 Este 0 1014.2 0.9 26
2019-03-26 10:00:00 20.3 34 Este 55 Este 0 1013.8 0.8 32
2019-03-26 09:00:00 19.8 35 Este 58 Nordeste 0 1013.4 0.5 29
2019-03-26 08:00:00 16.2 29 Este 47 Este 0 1013.3 0.7 55
2019-03-26 07:00:00 15.8 26 Este 43 Este 0 1013 -0.5 57
2019-03-26 06:00:00 16 21 Este 39 Este 0 1012.9 -1.3 62
2019-03-26 05:00:00 15.9 25 Este 42 Este 0 1012.6 -2.4 60
2019-03-26 04:00:00 15.8 22 Este 40 Este 0 1013.5 -1.8 62
2019-03-26 03:00:00 16 26 Este 42 Este 0 1014.2 -1.1 58
2019-03-26 02:00:00 16.1 24 Este 45 Este 0 1015 -0.5 59
2019-03-26 01:00:00 -- -- -- -- -- -- -- -- --
2019-03-26 00:00:00 -- -- -- -- -- -- -- -- --
2019-03-25 23:00:00 -- -- -- -- -- -- -- -- --
2019-03-25 22:00:00 -- -- -- -- -- -- -- -- --
2019-03-25 21:00:00 -- -- -- -- -- -- -- -- --
2019-03-25 20:00:00 -- -- -- -- -- -- -- -- --
2019-03-25 19:00:00 -- -- -- -- -- -- -- -- --
2019-03-25 18:00:00 -- -- -- -- -- -- -- -- --
2019-03-25 17:00:00 -- -- -- -- -- -- -- -- --
2019-03-25 16:00:00 -- -- -- -- -- -- -- -- --
2019-03-25 15:00:00 -- -- -- -- -- -- -- -- --
2019-03-25 14:00:00 -- -- -- -- -- -- -- -- --
2019-03-25 13:00:00 -- -- -- -- -- -- -- -- --
2019-03-25 12:00:00 -- -- -- -- -- -- -- -- --
2019-03-25 11:00:00 -- -- -- -- -- -- -- -- --
2019-03-25 10:00:00 -- -- -- -- -- -- -- -- --
2019-03-25 09:00:00 -- -- -- -- -- -- -- -- --
2019-03-25 08:00:00 -- -- -- -- -- -- -- -- --
2019-03-25 07:00:00 -- -- -- -- -- -- -- -- --
2019-03-25 06:00:00 -- -- -- -- -- -- -- -- --
2019-03-25 05:00:00 -- -- -- -- -- -- -- -- --
2019-03-25 04:00:00 -- -- -- -- -- -- -- -- --
2019-03-25 03:00:00 -- -- -- -- -- -- -- -- --
2019-03-25 02:00:00 -- -- -- -- -- -- -- -- --
2019-03-25 01:00:00 -- -- -- -- -- -- -- -- --
2019-03-25 00:00:00 -- -- -- -- -- -- -- -- --